< < Back
Terminal Aerodrome Forecast


Current Version              Previous Versions:   1  2  3  4  5  6  7  8  9  

Terminal Aerodrome Forecast

956
FTUS44 KHUN 260520
TAFHSV
TAF
KHSV 260520Z 2606/2706 VRB04KT P6SM VCSH SCT050 BKN150
     FM260900 VRB03KT P6SM FEW200
     FM261600 18006KT P6SM SCT050 SCT120
     FM270100 VRB03KT P6SM BKN250=

Latest METAR

413
SAUS80 KWBC 260800 RRA
MTRHSV
METAR KHSV 260753Z AUTO 17005KT 10SM CLR 26/21 A3002 RMK AO2 SLP154
T02560211 $


USA.gov is the U.S. government's official web portal to all federal, state and local government web resources and services.